Hillsdale, North Carolina
Current Conditions -  °F | °C
As of 11:54 PM on Saturday 22 Nov 2014 (Local Time) from KINT Reporting Station
Overcast Overcast  
Wind Chill: 40°   Ceiling: 4400
Heat Index: 40°   Visibility: 10mi
Dew Point: 22°   Wind: 0mph
Humidity: 49%   Direction: NA
Pressure: 30.31"   Gusts: NA
Location:  36.0107°N, 80.4503°W
Report Text: KINT 230454Z AUTO 00000KT 10SM OVC044 04/M06 A3031 RMK AO2 SLP267 T00441056 401061056
Loading
Personal Weather Stations






























Interactive Weather Map New forecast layout! Learn more

10-Day Weather Forecast

Advertisements
Track Severe Weather on mobile